• Join FlightAware (Why Join?)
  • Login
  • US Flag 
07:06AM EDT


 

Airport Tracker/Info


-or-


 

Live Flight TrackerFlight Track Log ✈ UAL527 ✈ 15-Jun-2013 ✈ KORD - KBWI

Flight Track Log - Related Links

Times and Time Zones

All times are in EDT time to prevent confusion due to time zone crossing. See the UAL527 flight status page for this flight to view local times or setup timezone preferences in your user account.

Time Position Orientation Groundspeed Altitude Reporting Facility
EDT Latitude Longitude Course Direction KTS MPH feet Rate Location/Type
10:25PM 41.9833 -87.8667 109° East 159 183 1,700  Level Chicago TRACON
10:26PM 41.9667 -87.8000 109° East 210 242 3,300 1,740 Climbing Chicago TRACON
10:26PM 41.9686 -87.7783 83° East 210 242 4,000 2,100 Climbing Chicago Center
10:27PM 41.9500 -87.6808 104° East 258 297 6,100 2,340 Climbing Chicago Center
10:28PM 41.9447 -87.5703 94° East 296 341 8,800 3,000 Climbing Chicago Center
10:29PM 41.9464 -87.4492 89° East 319 367 12,300 3,000 Climbing Chicago Center
10:30PM 41.9458 -87.3244 90° East 332 382 15,000 2,160 Climbing Chicago Center
10:31PM 41.9447 -87.1867 91° East 374 430 16,700 2,160 Climbing Chicago Center
10:32PM 41.9456 -87.0386 90° East 397 457 19,400 2,100 Climbing Chicago Center
10:33PM 41.9494 -86.8811 88° East 419 482 21,000 1,440 Climbing Chicago Center
10:34PM 41.9492 -86.7208 90° East 430 495 22,400 960 Climbing Chicago Center
10:35PM 41.9525 -86.5358 89° East 439 505 23,000 900 Climbing Chicago Center
10:36PM 41.9550 -86.3711 89° East 441 507 24,300 1,380 Climbing Chicago Center
10:37PM 41.9533 -86.2006 91° East 456 525 25,900 1,500 Climbing Chicago Center
10:38PM 41.9197 -86.0297 105° East 472 543 27,400 1,500 Climbing Chicago Center
10:39PM 41.8847 -85.8564 105° East 479 551 29,000 1,860 Climbing Chicago Center
10:40PM 41.8497 -85.6808 105° East 486 559 31,200 1,380 Climbing Chicago Center
10:41PM 41.8147 -85.5017 105° East 491 565 31,900 1,800 Climbing Chicago Center
10:42PM 41.7803 -85.3194 104° East 496 571 34,900 1,500 Climbing Chicago Center
10:43PM 41.7358 -85.1486 109° East 483 556 35,000  Climbing Chicago Center
10:44PM 41.6761 -84.9708 114° Southeast 515 593 35,000  Level Chicago Center
10:46PM 41.6161 -84.7908 114° Southeast 527 606 35,000 240 Level Chicago Center
10:47PM 41.5547 -84.6136 115° Southeast 524 603 35,500 660 Climbing Chicago Center
10:48PM 41.4939 -84.4347 114° Southeast 528 608 36,400 720 Climbing Chicago Center
10:49PM 41.4319 -84.2553 115° Southeast 534 615 37,000 240 Climbing Chicago Center
10:50PM 41.3694 -84.0744 115° Southeast 537 618 37,000  Level Chicago Center
10:51PM 41.3078 -83.8992 115° Southeast 525 604 37,000  Level Chicago Center
10:51PM 41.2878 -83.8525 120° Southeast 525 604 37,000  Level Cleveland Center
10:52PM 41.2239 -83.6753 116° Southeast 519 597 37,000  Level Cleveland Center
10:53PM 41.1639 -83.5042 115° Southeast 519 597 37,000  Level Cleveland Center
10:54PM 41.1033 -83.3333 115° Southeast 513 590 37,000  Level Cleveland Center
10:55PM 41.0428 -83.1600 115° Southeast 513 590 37,000  Level Cleveland Center
10:56PM 40.9800 -82.9842 115° Southeast 519 597 37,100  Climbing Cleveland Center
10:57PM 40.9167 -82.8142 116° Southeast 519 597 37,000 -60 Descending Cleveland Center
10:58PM 40.8553 -82.6419 115° Southeast 514 592 37,000  Level Cleveland Center
10:58PM 40.8336 -82.5800 115° Southeast 516 594 37,000 -120 Level Indianapolis Center
10:59PM 40.7714 -82.4103 116° Southeast 513 590 36,900  Descending Indianapolis Center
11:00PM 40.7089 -82.2417 116° Southeast 511 588 37,000 60 Climbing Indianapolis Center
11:01PM 40.6614 -82.1214 117° Southeast 508 585 37,000  Level Cleveland Center
11:02PM 40.5989 -81.9531 116° Southeast 513 590 37,000  Level Cleveland Center
11:02PM 40.5833 -81.9081 114° Southeast 507 583 37,000  Level Indianapolis Center
11:03PM 40.5214 -81.7411 116° Southeast 506 582 37,000  Level Indianapolis Center
11:04PM 40.4753 -81.6203 117° Southeast 503 579 37,000  Level Cleveland Center
11:05PM 40.4097 -81.4556 118° Southeast 503 579 37,000  Level Cleveland Center
11:06PM 40.3589 -81.3025 114° Southeast 508 585 37,000  Level Cleveland Center
11:06PM 40.3283 -81.2364 121° Southeast 516 594 37,000 60 Level Indianapolis Center
11:07PM 40.2747 -81.0594 112° Southeast 518 596 37,100 60 Climbing Indianapolis Center
11:08PM 40.2478 -80.9583 109° East 508 585 37,100 -120 Level Cleveland Center
11:09PM 40.1942 -80.7842 112° Southeast 508 585 37,000 -540 Descending Cleveland Center
11:11PM 40.0800 -80.4125 112° Southeast 504 580 35,600 -1,080 Descending Washington Center
11:11PM 40.0572 -80.3467 114° Southeast 509 586 34,400 -2,460 Descending Indianapolis Center
11:12PM 40.0036 -80.1719 112° Southeast 516 594 32,200 -2,040 Descending Indianapolis Center
11:14PM 39.9239 -79.9094 112° Southeast 499 574 29,000 -1,920 Descending Washington Center
11:15PM 39.8733 -79.7522 113° Southeast 480 552 27,200 -1,620 Descending Washington Center
11:16PM 39.8264 -79.5983 112° Southeast 469 540 25,900 -1,140 Descending Washington Center
11:17PM 39.7792 -79.4497 112° Southeast 454 522 25,000 -480 Descending Washington Center
11:18PM 39.7278 -79.2961 113° Southeast 454 522 25,000  Level Washington Center
11:19PM 39.6783 -79.1344 112° Southeast 465 535 25,000 -900 Level Washington Center
11:20PM 39.6372 -78.9706 108° East 471 542 23,300 -1,980 Descending Washington Center
11:21PM 39.6019 -78.8156 106° East 490 564 21,100 -2,280 Descending Washington Center
11:22PM 39.5683 -78.6631 106° East 472 543 18,800 -2,220 Descending Washington Center
11:23PM 39.5364 -78.5192 106° East 439 505 16,700 -1,920 Descending Washington Center
11:24PM 39.5025 -78.3725 107° East 420 483 15,000 -900 Descending Washington Center
11:25PM 39.4722 -78.2289 105° East 420 483 15,000  Level Washington Center
11:26PM 39.4378 -78.0825 107° East 420 483 15,000  Level Washington Center
11:27PM 39.4053 -77.9364 106° East 420 483 15,000 -900 Level Washington Center
11:28PM 39.4164 -77.7889 84° East 415 478 13,200 -1,980 Descending Washington Center
11:29PM 39.4253 -77.6494 85° East 402 463 11,100 -1,140 Descending Washington Center
11:30PM 39.4336 -77.5128 85° East 386 444 11,000 -60 Descending Washington Center
11:31PM 39.4442 -77.3761 84° East 381 438 11,000  Level Washington Center
11:31PM 39.4500 -77.2833 85° East 383 441 11,000 -300 Level Potomac TRACON
11:32PM 39.4333 -77.1667 100° East 371 427 10,600 -720 Descending Potomac TRACON
11:33PM 39.3833 -77.0667 123° Southeast 323 372 9,600 -1,200 Descending Potomac TRACON
11:34PM 39.3167 -76.9833 136° Southeast 299 344 8,200 -1,620 Descending Potomac TRACON
11:35PM 39.2500 -76.9333 150° Southeast 300 345 6,600 -1,680 Descending Potomac TRACON
11:36PM 39.2000 -76.8667 134° Southeast 278 320 5,100 -1,920 Descending Potomac TRACON
11:37PM 39.1333 -76.7833 136° Southeast 270 311 2,600 -2,280 Descending Potomac TRACON